sensor_id;sensor_type;location;lat;lon;timestamp;temperature;humidity
63802;DHT22;49949;43.060;25.624;2022-08-11T00:01:15;20.60;83.40
63802;DHT22;49949;43.060;25.624;2022-08-11T00:03:45;20.60;83.20
63802;DHT22;49949;43.060;25.624;2022-08-11T00:06:11;20.60;83.30
63802;DHT22;49949;43.060;25.624;2022-08-11T00:08:39;20.60;83.60
63802;DHT22;49949;43.060;25.624;2022-08-11T00:11:09;20.60;83.80
63802;DHT22;49949;43.060;25.624;2022-08-11T00:13:42;20.60;84.40
63802;DHT22;49949;43.060;25.624;2022-08-11T00:16:19;20.50;85.10
63802;DHT22;49949;43.060;25.624;2022-08-11T00:18:48;20.50;85.60
63802;DHT22;49949;43.060;25.624;2022-08-11T00:21:15;20.50;84.60
63802;DHT22;49949;43.060;25.624;2022-08-11T00:23:54;20.50;84.80
63802;DHT22;49949;43.060;25.624;2022-08-11T00:26:22;20.40;85.10
63802;DHT22;49949;43.060;25.624;2022-08-11T00:28:48;20.30;86.20
63802;DHT22;49949;43.060;25.624;2022-08-11T00:31:30;20.20;85.20
63802;DHT22;49949;43.060;25.624;2022-08-11T00:33:58;20.20;85.90
63802;DHT22;49949;43.060;25.624;2022-08-11T00:36:29;20.20;86.50
63802;DHT22;49949;43.060;25.624;2022-08-11T00:39:05;20.20;86.10
63802;DHT22;49949;43.060;25.624;2022-08-11T00:54:51;19.90;89.70
63802;DHT22;49949;43.060;25.624;2022-08-11T00:57:52;19.70;90.10
63802;DHT22;49949;43.060;25.624;2022-08-11T01:00:25;19.60;90.90
63802;DHT22;49949;43.060;25.624;2022-08-11T01:14:25;19.20;91.10
63802;DHT22;49949;43.060;25.624;2022-08-11T01:19:50;19.00;94.10
63802;DHT22;49949;43.060;25.624;2022-08-11T01:43:06;18.60;95.80
63802;DHT22;49949;43.060;25.624;2022-08-11T01:46:09;18.50;96.20
63802;DHT22;49949;43.060;25.624;2022-08-11T01:54:43;18.50;97.20
63802;DHT22;49949;43.060;25.624;2022-08-11T02:00:29;18.50;96.70
63802;DHT22;49949;43.060;25.624;2022-08-11T02:06:10;18.50;99.30
63802;DHT22;49949;43.060;25.624;2022-08-11T02:12:13;18.20;99.00
63802;DHT22;49949;43.060;25.624;2022-08-11T02:18:12;18.10;99.90
63802;DHT22;49949;43.060;25.624;2022-08-11T02:20:57;18.10;99.90
63802;DHT22;49949;43.060;25.624;2022-08-11T02:23:57;18.10;99.90
63802;DHT22;49949;43.060;25.624;2022-08-11T02:27:04;18.10;99.90
63802;DHT22;49949;43.060;25.624;2022-08-11T02:35:48;17.90;99.90
63802;DHT22;49949;43.060;25.624;2022-08-11T02:41:00;17.90;99.90
63802;DHT22;49949;43.060;25.624;2022-08-11T02:43:46;17.80;99.90
63802;DHT22;49949;43.060;25.624;2022-08-11T02:46:28;17.80;99.90
63802;DHT22;49949;43.060;25.624;2022-08-11T02:49:04;17.70;99.90
63802;DHT22;49949;43.060;25.624;2022-08-11T02:52:07;17.70;99.90
63802;DHT22;49949;43.060;25.624;2022-08-11T02:55:09;17.60;99.90
63802;DHT22;49949;43.060;25.624;2022-08-11T02:57:54;17.60;99.90
63802;DHT22;49949;43.060;25.624;2022-08-11T03:00:23;17.70;99.90
63802;DHT22;49949;43.060;25.624;2022-08-11T03:12:05;17.40;99.90
63802;DHT22;49949;43.060;25.624;2022-08-11T03:15:02;17.40;99.90
63802;DHT22;49949;43.060;25.624;2022-08-11T03:18:14;17.30;99.90
63802;DHT22;49949;43.060;25.624;2022-08-11T03:20:55;17.60;99.90
63802;DHT22;49949;43.060;25.624;2022-08-11T03:23:33;17.30;99.90
63802;DHT22;49949;43.060;25.624;2022-08-11T03:34:24;17.10;99.90
63802;DHT22;49949;43.060;25.624;2022-08-11T03:37:20;17.10;99.90
63802;DHT22;49949;43.060;25.624;2022-08-11T03:40:15;16.90;99.90
63802;DHT22;49949;43.060;25.624;2022-08-11T03:46:09;17.20;99.90
63802;DHT22;49949;43.060;25.624;2022-08-11T03:48:58;17.10;99.90
63802;DHT22;49949;43.060;25.624;2022-08-11T04:00:14;17.60;99.90
63802;DHT22;49949;43.060;25.624;2022-08-11T04:18:19;19.60;98.60
63802;DHT22;49949;43.060;25.624;2022-08-11T04:29:09;19.50;97.50
63802;DHT22;49949;43.060;25.624;2022-08-11T04:34:34;19.00;99.30
63802;DHT22;49949;43.060;25.624;2022-08-11T05:00:36;21.60;89.00
63802;DHT22;49949;43.060;25.624;2022-08-11T05:06:38;21.10;88.50
63802;DHT22;49949;43.060;25.624;2022-08-11T05:09:18;20.80;90.20
63802;DHT22;49949;43.060;25.624;2022-08-11T05:11:52;20.80;90.90
63802;DHT22;49949;43.060;25.624;2022-08-11T05:14:33;20.80;90.40
63802;DHT22;49949;43.060;25.624;2022-08-11T05:17:30;20.80;90.80
63802;DHT22;49949;43.060;25.624;2022-08-11T05:20:16;21.00;92.00
63802;DHT22;49949;43.060;25.624;2022-08-11T05:23:04;21.10;92.50
63802;DHT22;49949;43.060;25.624;2022-08-11T05:25:54;21.20;91.60
63802;DHT22;49949;43.060;25.624;2022-08-11T05:29:23;21.10;89.60
63802;DHT22;49949;43.060;25.624;2022-08-11T05:31:57;21.00;90.50
63802;DHT22;49949;43.060;25.624;2022-08-11T05:34:49;21.00;91.00
63802;DHT22;49949;43.060;25.624;2022-08-11T05:37:38;21.10;90.40
63802;DHT22;49949;43.060;25.624;2022-08-11T05:40:11;21.20;90.30
63802;DHT22;49949;43.060;25.624;2022-08-11T05:43:01;21.30;91.20
63802;DHT22;49949;43.060;25.624;2022-08-11T05:46:01;21.40;89.30
63802;DHT22;49949;43.060;25.624;2022-08-11T05:48:46;21.30;90.80
63802;DHT22;49949;43.060;25.624;2022-08-11T05:51:35;21.30;91.60
63802;DHT22;49949;43.060;25.624;2022-08-11T05:54:20;21.50;91.50
63802;DHT22;49949;43.060;25.624;2022-08-11T05:57:05;22.40;88.50
63802;DHT22;49949;43.060;25.624;2022-08-11T05:59:32;23.00;86.10
63802;DHT22;49949;43.060;25.624;2022-08-11T06:02:03;23.40;83.80
63802;DHT22;49949;43.060;25.624;2022-08-11T06:04:30;23.60;81.60
63802;DHT22;49949;43.060;25.624;2022-08-11T06:07:04;23.70;81.10
63802;DHT22;49949;43.060;25.624;2022-08-11T06:09:45;23.80;80.10
63802;DHT22;49949;43.060;25.624;2022-08-11T06:12:21;24.10;79.40
63802;DHT22;49949;43.060;25.624;2022-08-11T06:14:50;24.10;77.50
63802;DHT22;49949;43.060;25.624;2022-08-11T06:17:26;24.20;79.00
63802;DHT22;49949;43.060;25.624;2022-08-11T06:20:01;24.50;74.80
63802;DHT22;49949;43.060;25.624;2022-08-11T06:22:29;24.50;74.30
63802;DHT22;49949;43.060;25.624;2022-08-11T06:24:58;24.50;73.20
63802;DHT22;49949;43.060;25.624;2022-08-11T06:27:26;24.50;72.80
63802;DHT22;49949;43.060;25.624;2022-08-11T06:29:54;24.70;73.00
63802;DHT22;49949;43.060;25.624;2022-08-11T06:32:23;24.40;72.20
63802;DHT22;49949;43.060;25.624;2022-08-11T06:48:21;24.40;73.30
63802;DHT22;49949;43.060;25.624;2022-08-11T06:50:52;24.40;71.80
63802;DHT22;49949;43.060;25.624;2022-08-11T06:53:53;24.30;70.80
63802;DHT22;49949;43.060;25.624;2022-08-11T06:56:28;24.40;72.00
63802;DHT22;49949;43.060;25.624;2022-08-11T06:59:15;24.50;72.50
63802;DHT22;49949;43.060;25.624;2022-08-11T07:02:11;24.60;71.50
63802;DHT22;49949;43.060;25.624;2022-08-11T07:04:40;24.60;70.90
63802;DHT22;49949;43.060;25.624;2022-08-11T07:07:19;24.60;71.00
63802;DHT22;49949;43.060;25.624;2022-08-11T07:12:57;25.00;70.00
63802;DHT22;49949;43.060;25.624;2022-08-11T07:15:43;25.10;69.50
63802;DHT22;49949;43.060;25.624;2022-08-11T07:18:21;25.00;68.30
63802;DHT22;49949;43.060;25.624;2022-08-11T07:21:14;24.70;70.20
63802;DHT22;49949;43.060;25.624;2022-08-11T07:24:01;25.00;69.80
63802;DHT22;49949;43.060;25.624;2022-08-11T07:26:50;25.30;70.50
63802;DHT22;49949;43.060;25.624;2022-08-11T07:29:37;25.50;68.70
63802;DHT22;49949;43.060;25.624;2022-08-11T07:32:16;25.20;69.00
63802;DHT22;49949;43.060;25.624;2022-08-11T07:34:50;25.20;65.90
63802;DHT22;49949;43.060;25.624;2022-08-11T07:37:20;24.80;67.60
63802;DHT22;49949;43.060;25.624;2022-08-11T07:39:48;24.90;68.80
63802;DHT22;49949;43.060;25.624;2022-08-11T07:42:22;25.30;68.00
63802;DHT22;49949;43.060;25.624;2022-08-11T07:44:48;25.20;66.10
63802;DHT22;49949;43.060;25.624;2022-08-11T07:47:34;25.30;66.90
63802;DHT22;49949;43.060;25.624;2022-08-11T07:50:19;25.60;65.40
63802;DHT22;49949;43.060;25.624;2022-08-11T07:53:03;26.10;64.30
63802;DHT22;49949;43.060;25.624;2022-08-11T07:55:30;26.00;64.00
63802;DHT22;49949;43.060;25.624;2022-08-11T07:57:58;25.10;65.50
63802;DHT22;49949;43.060;25.624;2022-08-11T08:00:46;25.30;65.80
63802;DHT22;49949;43.060;25.624;2022-08-11T08:03:32;25.20;66.20
63802;DHT22;49949;43.060;25.624;2022-08-11T08:06:16;25.30;65.60
63802;DHT22;49949;43.060;25.624;2022-08-11T08:09:02;25.40;65.20
63802;DHT22;49949;43.060;25.624;2022-08-11T08:11:47;25.80;64.60
63802;DHT22;49949;43.060;25.624;2022-08-11T08:14:32;25.60;62.30
63802;DHT22;49949;43.060;25.624;2022-08-11T08:17:17;26.40;60.60
63802;DHT22;49949;43.060;25.624;2022-08-11T08:20:03;26.10;61.80
63802;DHT22;49949;43.060;25.624;2022-08-11T08:22:29;26.30;62.90
63802;DHT22;49949;43.060;25.624;2022-08-11T08:24:55;26.60;60.60
63802;DHT22;49949;43.060;25.624;2022-08-11T08:27:21;26.70;61.10
63802;DHT22;49949;43.060;25.624;2022-08-11T08:29:50;26.70;60.30
63802;DHT22;49949;43.060;25.624;2022-08-11T08:32:38;26.30;60.10
63802;DHT22;49949;43.060;25.624;2022-08-11T08:35:06;26.90;59.50
63802;DHT22;49949;43.060;25.624;2022-08-11T08:37:32;26.90;59.20
63802;DHT22;49949;43.060;25.624;2022-08-11T08:39:58;26.60;59.80
63802;DHT22;49949;43.060;25.624;2022-08-11T08:42:27;26.80;59.00
63802;DHT22;49949;43.060;25.624;2022-08-11T08:45:14;26.80;58.90
63802;DHT22;49949;43.060;25.624;2022-08-11T08:47:42;26.80;59.60
63802;DHT22;49949;43.060;25.624;2022-08-11T08:50:15;26.80;59.90
63802;DHT22;49949;43.060;25.624;2022-08-11T08:52:57;27.20;59.90
63802;DHT22;49949;43.060;25.624;2022-08-11T08:55:23;27.60;56.20
63802;DHT22;49949;43.060;25.624;2022-08-11T08:57:51;28.90;57.50
63802;DHT22;49949;43.060;25.624;2022-08-11T09:00:19;28.80;54.50
63802;DHT22;49949;43.060;25.624;2022-08-11T09:02:46;28.50;54.50
63802;DHT22;49949;43.060;25.624;2022-08-11T09:05:16;28.20;56.30
63802;DHT22;49949;43.060;25.624;2022-08-11T09:07:43;28.50;54.10
63802;DHT22;49949;43.060;25.624;2022-08-11T09:10:13;28.70;54.30
63802;DHT22;49949;43.060;25.624;2022-08-11T09:12:41;27.90;56.00
63802;DHT22;49949;43.060;25.624;2022-08-11T09:15:09;27.70;57.50
63802;DHT22;49949;43.060;25.624;2022-08-11T09:20:06;27.70;57.00
63802;DHT22;49949;43.060;25.624;2022-08-11T09:22:39;28.30;57.10
63802;DHT22;49949;43.060;25.624;2022-08-11T09:25:32;28.20;54.10
63802;DHT22;49949;43.060;25.624;2022-08-11T09:28:18;28.90;53.20
63802;DHT22;49949;43.060;25.624;2022-08-11T09:30:48;29.40;52.10
63802;DHT22;49949;43.060;25.624;2022-08-11T09:33:23;29.30;52.70
63802;DHT22;49949;43.060;25.624;2022-08-11T09:35:51;29.60;51.10
63802;DHT22;49949;43.060;25.624;2022-08-11T09:38:19;28.90;52.50
63802;DHT22;49949;43.060;25.624;2022-08-11T09:41:07;29.10;53.40
63802;DHT22;49949;43.060;25.624;2022-08-11T09:43:41;28.70;52.80
63802;DHT22;49949;43.060;25.624;2022-08-11T09:46:27;28.10;55.00
63802;DHT22;49949;43.060;25.624;2022-08-11T09:48:56;27.80;54.80
63802;DHT22;49949;43.060;25.624;2022-08-11T09:51:24;27.30;57.30
63802;DHT22;49949;43.060;25.624;2022-08-11T09:53:51;27.10;57.50
63802;DHT22;49949;43.060;25.624;2022-08-11T09:56:23;27.20;57.60
63802;DHT22;49949;43.060;25.624;2022-08-11T09:59:07;27.40;57.40
63802;DHT22;49949;43.060;25.624;2022-08-11T10:01:38;27.60;56.60
63802;DHT22;49949;43.060;25.624;2022-08-11T10:04:17;27.90;54.30
63802;DHT22;49949;43.060;25.624;2022-08-11T10:06:48;28.20;55.20
63802;DHT22;49949;43.060;25.624;2022-08-11T10:09:51;28.50;54.70
63802;DHT22;49949;43.060;25.624;2022-08-11T10:14:48;28.10;54.00
63802;DHT22;49949;43.060;25.624;2022-08-11T10:17:40;27.50;53.80
63802;DHT22;49949;43.060;25.624;2022-08-11T10:20:29;27.50;54.10
63802;DHT22;49949;43.060;25.624;2022-08-11T10:22:57;27.90;53.90
63802;DHT22;49949;43.060;25.624;2022-08-11T10:25:42;28.30;53.90
63802;DHT22;49949;43.060;25.624;2022-08-11T10:28:27;28.90;51.60
63802;DHT22;49949;43.060;25.624;2022-08-11T10:30:54;29.50;50.50
63802;DHT22;49949;43.060;25.624;2022-08-11T10:33:40;30.20;49.70
63802;DHT22;49949;43.060;25.624;2022-08-11T10:36:29;29.90;48.70
63802;DHT22;49949;43.060;25.624;2022-08-11T10:38:56;28.70;50.80
63802;DHT22;49949;43.060;25.624;2022-08-11T10:41:24;28.20;53.00
63802;DHT22;49949;43.060;25.624;2022-08-11T10:44:09;27.80;54.00
63802;DHT22;49949;43.060;25.624;2022-08-11T10:46:35;28.10;53.30
63802;DHT22;49949;43.060;25.624;2022-08-11T10:49:22;28.40;53.70
63802;DHT22;49949;43.060;25.624;2022-08-11T10:51:48;28.70;51.30
63802;DHT22;49949;43.060;25.624;2022-08-11T10:54:33;28.90;51.70
63802;DHT22;49949;43.060;25.624;2022-08-11T10:57:18;29.10;51.00
63802;DHT22;49949;43.060;25.624;2022-08-11T11:00:04;29.00;52.20
63802;DHT22;49949;43.060;25.624;2022-08-11T11:02:31;29.20;51.50
63802;DHT22;49949;43.060;25.624;2022-08-11T11:05:28;29.60;49.00
63802;DHT22;49949;43.060;25.624;2022-08-11T11:08:09;29.70;49.30
63802;DHT22;49949;43.060;25.624;2022-08-11T11:10:57;29.60;48.30
63802;DHT22;49949;43.060;25.624;2022-08-11T11:13:23;29.20;50.30
63802;DHT22;49949;43.060;25.624;2022-08-11T11:16:09;29.20;49.60
63802;DHT22;49949;43.060;25.624;2022-08-11T11:18:50;28.90;50.20
63802;DHT22;49949;43.060;25.624;2022-08-11T11:21:18;28.70;51.50
63802;DHT22;49949;43.060;25.624;2022-08-11T11:24:18;28.80;51.10
63802;DHT22;49949;43.060;25.624;2022-08-11T11:32:10;28.30;51.50
63802;DHT22;49949;43.060;25.624;2022-08-11T11:37:08;28.10;51.90
63802;DHT22;49949;43.060;25.624;2022-08-11T11:39:38;28.20;51.90
63802;DHT22;49949;43.060;25.624;2022-08-11T11:42:09;28.40;52.40
63802;DHT22;49949;43.060;25.624;2022-08-11T11:44:41;28.50;51.50
63802;DHT22;49949;43.060;25.624;2022-08-11T11:47:10;28.70;52.00
63802;DHT22;49949;43.060;25.624;2022-08-11T11:49:37;28.70;50.30
63802;DHT22;49949;43.060;25.624;2022-08-11T11:52:08;28.50;51.20
63802;DHT22;49949;43.060;25.624;2022-08-11T11:54:41;28.60;52.10
63802;DHT22;49949;43.060;25.624;2022-08-11T11:57:07;28.70;50.30
63802;DHT22;49949;43.060;25.624;2022-08-11T11:59:52;28.70;50.70
63802;DHT22;49949;43.060;25.624;2022-08-11T12:02:39;28.90;49.90
63802;DHT22;49949;43.060;25.624;2022-08-11T12:05:06;28.70;50.50
63802;DHT22;49949;43.060;25.624;2022-08-11T12:07:33;28.80;50.70
63802;DHT22;49949;43.060;25.624;2022-08-11T12:10:18;28.90;49.20
63802;DHT22;49949;43.060;25.624;2022-08-11T12:12:45;29.00;50.50
63802;DHT22;49949;43.060;25.624;2022-08-11T12:15:30;29.10;50.00
63802;DHT22;49949;43.060;25.624;2022-08-11T12:17:57;29.20;49.80
63802;DHT22;49949;43.060;25.624;2022-08-11T12:20:23;29.20;48.70
63802;DHT22;49949;43.060;25.624;2022-08-11T12:22:49;29.10;49.20
63802;DHT22;49949;43.060;25.624;2022-08-11T12:25:34;29.20;49.70
63802;DHT22;49949;43.060;25.624;2022-08-11T12:28:36;29.20;49.60
63802;DHT22;49949;43.060;25.624;2022-08-11T12:31:05;29.20;49.50
63802;DHT22;49949;43.060;25.624;2022-08-11T12:33:31;29.00;49.00
63802;DHT22;49949;43.060;25.624;2022-08-11T12:35:58;28.90;50.00
63802;DHT22;49949;43.060;25.624;2022-08-11T12:38:25;28.90;49.80
63802;DHT22;49949;43.060;25.624;2022-08-11T12:40:52;29.10;50.00
63802;DHT22;49949;43.060;25.624;2022-08-11T12:43:47;29.30;49.30
63802;DHT22;49949;43.060;25.624;2022-08-11T12:46:34;29.10;49.80
63802;DHT22;49949;43.060;25.624;2022-08-11T12:49:11;28.80;50.40
63802;DHT22;49949;43.060;25.624;2022-08-11T12:52:03;28.60;50.90
63802;DHT22;49949;43.060;25.624;2022-08-11T12:57:13;28.60;50.60
63802;DHT22;49949;43.060;25.624;2022-08-11T13:00:02;28.70;50.60
63802;DHT22;49949;43.060;25.624;2022-08-11T13:02:47;28.50;51.30
63802;DHT22;49949;43.060;25.624;2022-08-11T13:05:32;28.50;50.10
63802;DHT22;49949;43.060;25.624;2022-08-11T13:08:02;28.30;51.00
63802;DHT22;49949;43.060;25.624;2022-08-11T13:10:30;28.40;50.70
63802;DHT22;49949;43.060;25.624;2022-08-11T13:13:18;28.40;50.70
63802;DHT22;49949;43.060;25.624;2022-08-11T13:15:48;28.40;50.90
63802;DHT22;49949;43.060;25.624;2022-08-11T13:18:18;28.50;49.80
63802;DHT22;49949;43.060;25.624;2022-08-11T13:20:50;28.50;49.50
63802;DHT22;49949;43.060;25.624;2022-08-11T13:23:18;28.40;50.70
63802;DHT22;49949;43.060;25.624;2022-08-11T13:25:45;28.30;51.20
63802;DHT22;49949;43.060;25.624;2022-08-11T13:28:11;28.40;51.20
63802;DHT22;49949;43.060;25.624;2022-08-11T13:30:38;28.70;50.30
63802;DHT22;49949;43.060;25.624;2022-08-11T13:33:23;28.60;49.60
63802;DHT22;49949;43.060;25.624;2022-08-11T13:35:52;28.70;50.30
63802;DHT22;49949;43.060;25.624;2022-08-11T13:38:20;28.70;50.30
63802;DHT22;49949;43.060;25.624;2022-08-11T13:40:47;28.70;49.40
63802;DHT22;49949;43.060;25.624;2022-08-11T13:43:14;28.70;49.90
63802;DHT22;49949;43.060;25.624;2022-08-11T13:45:41;28.80;49.10
63802;DHT22;49949;43.060;25.624;2022-08-11T13:48:09;28.80;49.70
63802;DHT22;49949;43.060;25.624;2022-08-11T13:50:37;28.90;48.90
63802;DHT22;49949;43.060;25.624;2022-08-11T13:53:24;29.10;49.50
63802;DHT22;49949;43.060;25.624;2022-08-11T13:55:51;29.20;48.40
63802;DHT22;49949;43.060;25.624;2022-08-11T13:58:17;29.20;48.50
63802;DHT22;49949;43.060;25.624;2022-08-11T14:00:47;28.90;48.30
63802;DHT22;49949;43.060;25.624;2022-08-11T14:03:13;28.80;49.00
63802;DHT22;49949;43.060;25.624;2022-08-11T14:05:47;28.80;48.90
63802;DHT22;49949;43.060;25.624;2022-08-11T14:08:16;28.70;48.50
63802;DHT22;49949;43.060;25.624;2022-08-11T14:10:44;28.80;48.50
63802;DHT22;49949;43.060;25.624;2022-08-11T14:13:32;28.80;48.50
63802;DHT22;49949;43.060;25.624;2022-08-11T14:16:15;28.60;47.90
63802;DHT22;49949;43.060;25.624;2022-08-11T14:18:46;28.50;48.60
63802;DHT22;49949;43.060;25.624;2022-08-11T14:21:14;28.50;48.70
63802;DHT22;49949;43.060;25.624;2022-08-11T14:24:17;28.70;48.80
63802;DHT22;49949;43.060;25.624;2022-08-11T14:26:43;28.50;48.00
63802;DHT22;49949;43.060;25.624;2022-08-11T14:29:16;28.30;48.80
63802;DHT22;49949;43.060;25.624;2022-08-11T14:31:49;28.30;48.50
63802;DHT22;49949;43.060;25.624;2022-08-11T14:34:19;28.20;48.70
63802;DHT22;49949;43.060;25.624;2022-08-11T14:36:54;28.40;48.30
63802;DHT22;49949;43.060;25.624;2022-08-11T14:39:25;28.40;48.10
63802;DHT22;49949;43.060;25.624;2022-08-11T14:41:56;28.40;47.70
63802;DHT22;49949;43.060;25.624;2022-08-11T14:44:44;28.30;47.90
63802;DHT22;49949;43.060;25.624;2022-08-11T14:47:32;28.30;48.10
63802;DHT22;49949;43.060;25.624;2022-08-11T14:49:58;28.40;47.20
63802;DHT22;49949;43.060;25.624;2022-08-11T14:52:27;28.30;47.70
63802;DHT22;49949;43.060;25.624;2022-08-11T14:54:55;28.30;47.50
63802;DHT22;49949;43.060;25.624;2022-08-11T14:57:41;28.40;47.70
63802;DHT22;49949;43.060;25.624;2022-08-11T15:00:09;28.40;47.40
63802;DHT22;49949;43.060;25.624;2022-08-11T15:02:38;28.40;47.20
63802;DHT22;49949;43.060;25.624;2022-08-11T15:05:24;28.40;47.50
63802;DHT22;49949;43.060;25.624;2022-08-11T15:07:51;28.30;48.00
63802;DHT22;49949;43.060;25.624;2022-08-11T15:10:18;28.40;48.80
63802;DHT22;49949;43.060;25.624;2022-08-11T15:12:44;28.70;46.70
63802;DHT22;49949;43.060;25.624;2022-08-11T15:15:11;28.70;47.00
63802;DHT22;49949;43.060;25.624;2022-08-11T15:17:58;28.60;47.20
63802;DHT22;49949;43.060;25.624;2022-08-11T15:20:27;28.30;47.20
63802;DHT22;49949;43.060;25.624;2022-08-11T15:23:12;28.30;47.50
63802;DHT22;49949;43.060;25.624;2022-08-11T15:26:01;28.40;47.20
63802;DHT22;49949;43.060;25.624;2022-08-11T15:28:30;28.40;47.00
63802;DHT22;49949;43.060;25.624;2022-08-11T15:31:17;28.40;47.20
63802;DHT22;49949;43.060;25.624;2022-08-11T15:34:10;28.50;47.20
63802;DHT22;49949;43.060;25.624;2022-08-11T15:36:58;28.60;47.10
63802;DHT22;49949;43.060;25.624;2022-08-11T15:40:00;28.50;47.00
63802;DHT22;49949;43.060;25.624;2022-08-11T15:43:03;28.40;46.90
63802;DHT22;49949;43.060;25.624;2022-08-11T15:45:52;28.40;47.60
63802;DHT22;49949;43.060;25.624;2022-08-11T15:48:33;28.30;48.00
63802;DHT22;49949;43.060;25.624;2022-08-11T15:51:13;28.10;48.40
63802;DHT22;49949;43.060;25.624;2022-08-11T15:53:45;28.00;48.70
63802;DHT22;49949;43.060;25.624;2022-08-11T15:56:11;28.00;49.20
63802;DHT22;49949;43.060;25.624;2022-08-11T15:58:43;28.00;49.20
63802;DHT22;49949;43.060;25.624;2022-08-11T16:01:29;28.10;48.70
63802;DHT22;49949;43.060;25.624;2022-08-11T16:04:16;28.10;49.20
63802;DHT22;49949;43.060;25.624;2022-08-11T16:07:02;28.10;48.90
63802;DHT22;49949;43.060;25.624;2022-08-11T16:09:39;28.00;48.50
63802;DHT22;49949;43.060;25.624;2022-08-11T16:12:11;28.00;48.50
63802;DHT22;49949;43.060;25.624;2022-08-11T16:14:44;28.00;48.80
63802;DHT22;49949;43.060;25.624;2022-08-11T16:17:46;28.00;49.30
63802;DHT22;49949;43.060;25.624;2022-08-11T16:20:16;28.00;48.80
63802;DHT22;49949;43.060;25.624;2022-08-11T16:22:44;27.90;48.20
63802;DHT22;49949;43.060;25.624;2022-08-11T16:25:22;27.90;48.30
63802;DHT22;49949;43.060;25.624;2022-08-11T16:27:57;27.80;48.80
63802;DHT22;49949;43.060;25.624;2022-08-11T16:30:39;27.90;48.70
63802;DHT22;49949;43.060;25.624;2022-08-11T16:33:06;27.90;48.60
63802;DHT22;49949;43.060;25.624;2022-08-11T16:35:36;27.90;49.30
63802;DHT22;49949;43.060;25.624;2022-08-11T16:38:24;27.80;49.80
63802;DHT22;49949;43.060;25.624;2022-08-11T16:41:05;27.80;49.40
63802;DHT22;49949;43.060;25.624;2022-08-11T16:43:34;27.70;50.00
63802;DHT22;49949;43.060;25.624;2022-08-11T16:46:24;27.60;50.10
63802;DHT22;49949;43.060;25.624;2022-08-11T16:49:37;27.50;49.90
63802;DHT22;49949;43.060;25.624;2022-08-11T16:52:04;27.40;52.20
63802;DHT22;49949;43.060;25.624;2022-08-11T16:54:33;27.30;52.80
63802;DHT22;49949;43.060;25.624;2022-08-11T16:57:05;27.20;53.20
63802;DHT22;49949;43.060;25.624;2022-08-11T16:59:52;27.10;53.40
63802;DHT22;49949;43.060;25.624;2022-08-11T17:02:21;27.00;54.10
63802;DHT22;49949;43.060;25.624;2022-08-11T17:05:13;26.90;54.70
63802;DHT22;49949;43.060;25.624;2022-08-11T17:08:01;26.70;57.00
63802;DHT22;49949;43.060;25.624;2022-08-11T17:10:56;26.50;57.00
63802;DHT22;49949;43.060;25.624;2022-08-11T17:13:59;26.30;56.30
63802;DHT22;49949;43.060;25.624;2022-08-11T17:16:36;26.20;57.50
63802;DHT22;49949;43.060;25.624;2022-08-11T17:19:12;26.10;56.80
63802;DHT22;49949;43.060;25.624;2022-08-11T17:21:49;26.10;59.20
63802;DHT22;49949;43.060;25.624;2022-08-11T17:24:40;26.00;60.00
63802;DHT22;49949;43.060;25.624;2022-08-11T17:27:08;25.80;60.00
63802;DHT22;49949;43.060;25.624;2022-08-11T17:29:47;25.50;62.00
63802;DHT22;49949;43.060;25.624;2022-08-11T17:32:20;25.30;62.10
63802;DHT22;49949;43.060;25.624;2022-08-11T17:35:22;25.10;63.00
63802;DHT22;49949;43.060;25.624;2022-08-11T17:40:22;24.90;64.40
63802;DHT22;49949;43.060;25.624;2022-08-11T17:42:52;24.80;65.00
63802;DHT22;49949;43.060;25.624;2022-08-11T17:45:42;24.60;65.10
63802;DHT22;49949;43.060;25.624;2022-08-11T17:48:29;24.50;64.60
63802;DHT22;49949;43.060;25.624;2022-08-11T17:51:11;24.30;65.50
63802;DHT22;49949;43.060;25.624;2022-08-11T17:53:41;24.20;66.00
63802;DHT22;49949;43.060;25.624;2022-08-11T17:56:29;24.10;66.90
63802;DHT22;49949;43.060;25.624;2022-08-11T17:59:14;24.10;67.90
63802;DHT22;49949;43.060;25.624;2022-08-11T18:02:01;24.00;67.40
63802;DHT22;49949;43.060;25.624;2022-08-11T18:04:49;23.80;68.40
63802;DHT22;49949;43.060;25.624;2022-08-11T18:07:19;23.70;68.90
63802;DHT22;49949;43.060;25.624;2022-08-11T18:10:06;23.50;69.70
63802;DHT22;49949;43.060;25.624;2022-08-11T18:12:52;23.30;71.10
63802;DHT22;49949;43.060;25.624;2022-08-11T18:15:39;23.10;71.40
63802;DHT22;49949;43.060;25.624;2022-08-11T18:18:24;23.00;71.80
63802;DHT22;49949;43.060;25.624;2022-08-11T18:21:11;22.60;71.90
63802;DHT22;49949;43.060;25.624;2022-08-11T18:23:57;22.80;72.70
63802;DHT22;49949;43.060;25.624;2022-08-11T18:26:45;22.80;73.40
63802;DHT22;49949;43.060;25.624;2022-08-11T18:29:30;21.60;73.80
63802;DHT22;49949;43.060;25.624;2022-08-11T18:32:16;22.40;74.60
63802;DHT22;49949;43.060;25.624;2022-08-11T18:35:02;22.20;75.50
63802;DHT22;49949;43.060;25.624;2022-08-11T18:37:49;22.30;75.90
63802;DHT22;49949;43.060;25.624;2022-08-11T18:40:35;22.20;75.80
63802;DHT22;49949;43.060;25.624;2022-08-11T18:43:21;22.20;75.80
63802;DHT22;49949;43.060;25.624;2022-08-11T18:46:09;22.10;75.50
63802;DHT22;49949;43.060;25.624;2022-08-11T18:48:58;22.00;75.50
63802;DHT22;49949;43.060;25.624;2022-08-11T18:51:50;21.80;76.00
63802;DHT22;49949;43.060;25.624;2022-08-11T18:54:37;21.70;77.40
63802;DHT22;49949;43.060;25.624;2022-08-11T18:57:23;21.60;77.50
63802;DHT22;49949;43.060;25.624;2022-08-11T19:00:08;21.50;78.30
63802;DHT22;49949;43.060;25.624;2022-08-11T19:02:54;21.40;78.00
63802;DHT22;49949;43.060;25.624;2022-08-11T19:05:39;21.40;78.10
63802;DHT22;49949;43.060;25.624;2022-08-11T19:08:28;21.20;79.10
63802;DHT22;49949;43.060;25.624;2022-08-11T19:11:13;21.10;79.70
63802;DHT22;49949;43.060;25.624;2022-08-11T19:14:00;21.00;80.00
63802;DHT22;49949;43.060;25.624;2022-08-11T19:16:44;20.90;81.10
63802;DHT22;49949;43.060;25.624;2022-08-11T19:19:31;20.80;80.90
63802;DHT22;49949;43.060;25.624;2022-08-11T19:22:16;20.70;81.00
63802;DHT22;49949;43.060;25.624;2022-08-11T19:25:02;20.70;82.90
63802;DHT22;49949;43.060;25.624;2022-08-11T19:27:49;20.60;83.60
63802;DHT22;49949;43.060;25.624;2022-08-11T19:30:34;20.50;83.80
63802;DHT22;49949;43.060;25.624;2022-08-11T19:33:19;20.50;83.20
63802;DHT22;49949;43.060;25.624;2022-08-11T19:36:05;20.30;83.20
63802;DHT22;49949;43.060;25.624;2022-08-11T19:38:50;20.70;83.70